createdAt,value
2019-03-04T00:00:43.125Z,9.20
2019-03-04T00:03:09.248Z,9.20
2019-03-04T00:05:35.467Z,9.20
2019-03-04T00:08:01.592Z,9.20
2019-03-04T00:10:28.101Z,9.20
2019-03-04T00:12:54.246Z,9.20
2019-03-04T00:15:20.330Z,9.20
2019-03-04T00:17:46.470Z,9.20
2019-03-04T00:20:12.642Z,9.10
2019-03-04T00:22:38.797Z,9.00
2019-03-04T00:25:05.014Z,8.90
2019-03-04T00:27:31.238Z,8.90
2019-03-04T00:29:57.432Z,9.00
2019-03-04T00:32:23.545Z,8.80
2019-03-04T00:34:49.691Z,8.80
2019-03-04T00:37:15.779Z,8.80
2019-03-04T00:39:41.921Z,8.70
2019-03-04T00:42:08.081Z,8.70
2019-03-04T00:44:34.229Z,8.70
2019-03-04T00:47:00.387Z,8.70
2019-03-04T00:49:26.624Z,8.70
2019-03-04T00:51:52.784Z,8.60
2019-03-04T00:54:18.955Z,8.60
2019-03-04T00:56:45.025Z,8.60
2019-03-04T00:59:11.115Z,8.70
2019-03-04T01:01:37.202Z,8.70
2019-03-04T01:04:03.518Z,8.90
2019-03-04T01:06:29.661Z,9.00
2019-03-04T01:08:55.953Z,9.00
2019-03-04T01:11:22.089Z,9.10
2019-03-04T01:13:48.279Z,9.00
2019-03-04T01:16:14.409Z,9.00
2019-03-04T01:18:40.845Z,9.00
2019-03-04T01:21:07.341Z,9.00
2019-03-04T01:23:33.572Z,9.00
2019-03-04T01:25:59.635Z,9.10
2019-03-04T01:28:25.750Z,9.10
2019-03-04T01:30:51.876Z,9.10
2019-03-04T01:33:18.225Z,9.20
2019-03-04T01:35:44.342Z,9.20
2019-03-04T01:38:10.506Z,9.10
2019-03-04T01:40:36.670Z,9.00
2019-03-04T01:43:02.934Z,9.00
2019-03-04T01:45:29.111Z,9.00
2019-03-04T01:47:55.228Z,8.90
2019-03-04T01:50:21.342Z,8.90
2019-03-04T01:52:48.030Z,8.80
2019-03-04T01:55:16.183Z,8.80
2019-03-04T01:57:42.378Z,8.80
2019-03-04T02:00:11.462Z,8.70
2019-03-04T02:02:37.602Z,8.70
2019-03-04T02:05:05.424Z,8.70
2019-03-04T02:07:31.543Z,8.60
2019-03-04T02:09:57.878Z,8.50
2019-03-04T02:12:24.049Z,8.50
2019-03-04T02:14:50.238Z,8.50
2019-03-04T02:17:16.354Z,8.50
2019-03-04T02:19:42.482Z,8.60
2019-03-04T02:22:09.016Z,8.60
2019-03-04T02:24:35.184Z,8.60
2019-03-04T02:27:01.339Z,8.70
2019-03-04T02:29:27.718Z,8.70
2019-03-04T02:31:53.826Z,8.80
2019-03-04T02:34:19.909Z,8.80
2019-03-04T02:36:46.012Z,8.90
2019-03-04T02:39:12.149Z,9.00
2019-03-04T02:41:38.337Z,9.00
2019-03-04T02:44:04.455Z,9.00
2019-03-04T02:46:30.757Z,9.20
2019-03-04T02:48:57.109Z,9.10
2019-03-04T02:51:23.194Z,9.10
2019-03-04T02:53:49.311Z,9.10
2019-03-04T02:56:15.426Z,9.10
2019-03-04T02:58:41.623Z,9.10
2019-03-04T03:01:07.743Z,9.10
2019-03-04T03:03:33.846Z,9.10
2019-03-04T03:06:00.108Z,9.10
2019-03-04T03:08:26.206Z,9.10
2019-03-04T03:10:52.341Z,9.10
2019-03-04T03:13:18.555Z,9.20
2019-03-04T03:15:44.723Z,9.20
2019-03-04T03:18:11.430Z,9.10
2019-03-04T03:20:37.567Z,9.10
2019-03-04T03:23:03.693Z,9.00
2019-03-04T03:25:29.818Z,9.00
2019-03-04T03:27:55.991Z,9.10
2019-03-04T03:30:22.386Z,9.10
2019-03-04T03:32:48.662Z,9.10
2019-03-04T03:35:14.953Z,9.00
2019-03-04T03:37:41.369Z,9.00
2019-03-04T03:40:18.727Z,9.00
2019-03-04T03:42:44.829Z,8.90
2019-03-04T03:45:11.243Z,8.90
2019-03-04T03:47:37.465Z,8.90
2019-03-04T03:50:07.377Z,8.90
2019-03-04T03:52:33.515Z,9.00
2019-03-04T03:54:59.662Z,8.90
2019-03-04T03:57:25.866Z,8.90
2019-03-04T03:59:52.078Z,8.90
2019-03-04T04:02:18.326Z,8.90
2019-03-04T04:04:44.449Z,8.90
2019-03-04T04:07:10.622Z,9.00
2019-03-04T04:09:36.753Z,8.90
2019-03-04T04:12:02.959Z,9.00
2019-03-04T04:14:29.510Z,9.00
2019-03-04T04:16:55.774Z,9.00
2019-03-04T04:19:21.845Z,9.00
2019-03-04T04:21:47.986Z,9.10
2019-03-04T04:24:14.114Z,9.00
2019-03-04T04:26:40.212Z,9.00
2019-03-04T04:29:08.238Z,8.90
2019-03-04T04:31:34.322Z,9.00
2019-03-04T04:34:00.400Z,9.00
2019-03-04T04:36:26.537Z,8.90
2019-03-04T04:38:52.640Z,8.90
2019-03-04T04:41:18.874Z,8.80
2019-03-04T04:43:44.958Z,8.90
2019-03-04T04:46:11.116Z,8.90
2019-03-04T04:48:37.435Z,8.90
2019-03-04T04:51:03.525Z,8.80
2019-03-04T04:53:29.782Z,8.80
2019-03-04T04:55:55.989Z,8.80
2019-03-04T04:58:22.083Z,8.80
2019-03-04T05:00:48.214Z,8.80
2019-03-04T05:03:14.382Z,8.90
2019-03-04T05:05:40.555Z,8.90
2019-03-04T05:08:06.648Z,8.90
2019-03-04T05:10:32.784Z,8.90
2019-03-04T05:12:58.986Z,8.90
2019-03-04T05:15:25.107Z,8.90
2019-03-04T05:17:51.211Z,8.90
2019-03-04T05:20:25.639Z,8.90
2019-03-04T05:22:51.759Z,8.90
2019-03-04T05:25:18.084Z,8.80
2019-03-04T05:27:44.264Z,8.80
2019-03-04T05:30:18.111Z,8.80
2019-03-04T05:32:44.199Z,8.80
2019-03-04T05:35:10.398Z,8.80
2019-03-04T05:37:36.526Z,8.80
2019-03-04T05:40:06.773Z,8.70
2019-03-04T05:42:32.898Z,8.70
2019-03-04T05:44:59.131Z,8.70
2019-03-04T05:47:25.409Z,8.70
2019-03-04T05:49:51.584Z,8.70
2019-03-04T05:52:17.773Z,8.70
2019-03-04T05:54:43.843Z,8.70
2019-03-04T05:57:09.957Z,8.70
2019-03-04T05:59:36.078Z,8.70
2019-03-04T06:02:04.771Z,8.60
2019-03-04T06:04:30.895Z,8.70
2019-03-04T06:06:59.010Z,8.70
2019-03-04T06:09:25.071Z,8.80
2019-03-04T06:11:51.208Z,8.80
2019-03-04T06:14:25.313Z,8.80
2019-03-04T06:16:51.427Z,8.80
2019-03-04T06:19:17.505Z,8.90
2019-03-04T06:21:43.599Z,9.00
2019-03-04T06:24:09.709Z,8.90
2019-03-04T06:26:35.907Z,8.90
2019-03-04T06:29:02.025Z,9.00
2019-03-04T06:31:28.223Z,9.10
2019-03-04T06:33:55.095Z,9.10
2019-03-04T06:36:21.255Z,9.00
2019-03-04T06:38:47.407Z,9.10
2019-03-04T06:41:13.608Z,9.00
2019-03-04T06:43:39.697Z,9.00
2019-03-04T06:46:05.820Z,9.10
2019-03-04T06:48:32.024Z,9.10
2019-03-04T06:50:58.307Z,9.10
2019-03-04T06:53:31.264Z,9.10
2019-03-04T06:56:04.128Z,9.20
2019-03-04T06:58:33.997Z,9.20
2019-03-04T07:01:03.399Z,9.30
2019-03-04T07:03:29.721Z,9.30
2019-03-04T07:05:56.026Z,9.30
2019-03-04T07:08:35.205Z,9.40
2019-03-04T07:11:03.885Z,9.30
2019-03-04T07:13:30.039Z,9.40
2019-03-04T07:15:56.248Z,9.50
2019-03-04T07:18:22.466Z,9.60
2019-03-04T07:20:48.686Z,9.60
2019-03-04T07:23:14.786Z,9.70
2019-03-04T07:25:40.925Z,9.80
2019-03-04T07:28:07.016Z,9.90
2019-03-04T07:30:33.117Z,10.00
2019-03-04T07:32:59.254Z,10.00
2019-03-04T07:35:25.455Z,10.10
2019-03-04T07:37:58.374Z,10.10
2019-03-04T07:40:24.586Z,10.30
2019-03-04T07:42:50.658Z,10.30
2019-03-04T07:45:16.906Z,10.40
2019-03-04T07:47:42.988Z,10.40
2019-03-04T07:50:09.906Z,10.60
2019-03-04T07:52:36.061Z,10.70
2019-03-04T07:55:03.880Z,10.80
2019-03-04T07:57:30.070Z,10.90
2019-03-04T07:59:56.196Z,11.00
2019-03-04T08:02:22.332Z,11.00
2019-03-04T08:04:48.410Z,11.00
2019-03-04T08:07:37.696Z,11.10
2019-03-04T08:10:41.543Z,11.10
2019-03-04T08:13:26.658Z,11.10
2019-03-04T08:15:52.961Z,11.10
2019-03-04T08:18:19.032Z,11.10
2019-03-04T08:20:45.203Z,11.10
2019-03-04T08:23:11.486Z,11.20
2019-03-04T08:25:37.714Z,11.20
2019-03-04T08:28:05.966Z,11.10
2019-03-04T08:30:32.429Z,11.20
2019-03-04T08:32:58.532Z,11.20
2019-03-04T08:35:24.617Z,11.20
2019-03-04T08:37:50.914Z,11.30
2019-03-04T08:40:17.207Z,11.30
2019-03-04T08:42:43.301Z,11.30
2019-03-04T08:45:15.364Z,11.40
2019-03-04T08:47:41.501Z,11.50
2019-03-04T08:50:10.135Z,11.60
2019-03-04T08:52:36.350Z,11.50
2019-03-04T08:55:04.506Z,11.60
2019-03-04T08:57:30.750Z,11.60
2019-03-04T08:59:56.942Z,11.50
2019-03-04T09:02:23.096Z,11.60
2019-03-04T09:04:49.288Z,11.70
2019-03-04T09:07:15.363Z,11.80
2019-03-04T09:09:41.476Z,11.80
2019-03-04T09:12:07.602Z,11.80
2019-03-04T09:14:33.858Z,11.90
2019-03-04T09:17:00.018Z,12.00
2019-03-04T09:19:26.088Z,12.00
2019-03-04T09:21:52.236Z,12.10
2019-03-04T09:24:18.303Z,12.10
2019-03-04T09:26:44.490Z,12.20
2019-03-04T09:29:10.608Z,12.20
2019-03-04T09:31:36.730Z,12.20
2019-03-04T09:34:02.849Z,12.10
2019-03-04T09:36:29.087Z,12.20
2019-03-04T09:38:55.252Z,12.10
2019-03-04T09:41:21.362Z,12.00
2019-03-04T09:43:47.433Z,11.80
2019-03-04T09:46:13.742Z,11.70
2019-03-04T09:48:39.861Z,11.60
2019-03-04T09:51:05.946Z,11.50
2019-03-04T09:53:39.374Z,11.40
2019-03-04T09:56:00.436Z,11.20
2019-03-04T09:58:26.529Z,11.10
2019-03-04T10:01:05.615Z,11.20
2019-03-04T10:03:38.340Z,11.40
2019-03-04T10:06:29.586Z,11.40
2019-03-04T10:09:08.491Z,11.50
2019-03-04T10:12:04.192Z,11.60
2019-03-04T10:14:43.349Z,11.70
2019-03-04T10:17:42.234Z,11.80
2019-03-04T10:20:28.951Z,12.00
2019-03-04T10:23:10.710Z,12.20
2019-03-04T10:26:22.621Z,12.40
2019-03-04T10:28:50.152Z,12.50
2019-03-04T10:31:36.601Z,12.60
2019-03-04T10:34:26.297Z,12.80
2019-03-04T10:37:02.025Z,12.80
2019-03-04T10:39:35.089Z,12.90
2019-03-04T10:42:07.833Z,12.90
2019-03-04T10:44:52.657Z,12.90
2019-03-04T10:47:18.750Z,12.90
2019-03-04T10:49:44.885Z,13.30
2019-03-04T10:52:11.086Z,13.60
2019-03-04T10:54:37.212Z,13.70
2019-03-04T10:57:03.371Z,13.90
2019-03-04T10:59:29.572Z,14.30
2019-03-04T11:01:55.811Z,14.20
2019-03-04T11:04:22.095Z,13.80
2019-03-04T11:06:48.507Z,13.40
2019-03-04T11:09:14.731Z,13.30
2019-03-04T11:11:41.647Z,13.00
2019-03-04T11:14:07.753Z,12.90
2019-03-04T11:16:33.936Z,12.70
2019-03-04T11:19:00.229Z,12.50
2019-03-04T11:21:26.509Z,12.60
2019-03-04T11:23:52.655Z,12.60
2019-03-04T11:26:18.754Z,12.40
2019-03-04T11:28:45.055Z,12.40
2019-03-04T11:31:11.353Z,12.40
2019-03-04T11:33:37.502Z,12.20
2019-03-04T11:36:03.776Z,12.10
2019-03-04T11:38:39.724Z,12.10
2019-03-04T11:41:08.003Z,12.10
2019-03-04T11:43:34.349Z,12.10
2019-03-04T11:46:00.565Z,12.00
2019-03-04T11:48:26.698Z,12.00
2019-03-04T11:50:53.004Z,12.00
2019-03-04T11:53:19.390Z,12.00
2019-03-04T11:55:45.683Z,12.00
2019-03-04T11:58:11.776Z,12.00
2019-03-04T12:00:39.864Z,12.00
2019-03-04T12:03:06.091Z,12.00
2019-03-04T12:05:32.211Z,11.90
2019-03-04T12:07:58.339Z,11.80
2019-03-04T12:10:24.539Z,11.80
2019-03-04T12:12:50.620Z,11.80
2019-03-04T12:15:18.456Z,11.80
2019-03-04T12:17:44.793Z,11.90
2019-03-04T12:20:12.577Z,11.90
2019-03-04T12:22:38.814Z,12.00
2019-03-04T12:25:14.623Z,11.90
2019-03-04T12:27:40.912Z,11.90
2019-03-04T12:30:16.742Z,11.80
2019-03-04T12:32:42.967Z,11.70
2019-03-04T12:35:10.365Z,11.70
2019-03-04T12:37:36.526Z,11.70
2019-03-04T12:40:06.361Z,11.70
2019-03-04T12:42:32.466Z,11.60
2019-03-04T12:44:58.587Z,11.60
2019-03-04T12:47:24.690Z,11.50
2019-03-04T12:49:50.767Z,11.60
2019-03-04T12:52:16.935Z,11.60
2019-03-04T12:54:43.095Z,11.60
2019-03-04T12:57:09.339Z,11.50
2019-03-04T12:59:35.550Z,11.50
2019-03-04T13:02:01.692Z,11.40
2019-03-04T13:04:27.832Z,11.40
2019-03-04T13:06:54.141Z,11.40
2019-03-04T13:09:20.223Z,11.40
2019-03-04T13:11:46.358Z,11.30
2019-03-04T13:14:12.464Z,11.30
2019-03-04T13:16:38.613Z,11.20
2019-03-04T13:19:06.972Z,11.30
2019-03-04T13:21:33.200Z,11.20
2019-03-04T13:23:59.338Z,11.30
2019-03-04T13:26:25.514Z,11.10
2019-03-04T13:28:51.620Z,11.10
2019-03-04T13:31:17.701Z,11.10
2019-03-04T13:33:43.830Z,11.10
2019-03-04T13:36:10.785Z,11.20
2019-03-04T13:38:37.148Z,11.10
2019-03-04T13:41:03.506Z,11.00
2019-03-04T13:43:29.630Z,11.00
2019-03-04T13:45:56.002Z,11.00
2019-03-04T13:48:22.123Z,11.00
2019-03-04T13:50:48.434Z,11.00
2019-03-04T13:53:14.873Z,11.00
2019-03-04T13:55:40.956Z,11.00
2019-03-04T13:58:07.242Z,11.00
2019-03-04T14:00:38.263Z,11.00
2019-03-04T14:03:04.854Z,11.00
2019-03-04T14:05:31.112Z,11.00
2019-03-04T14:07:57.310Z,11.00
2019-03-04T14:10:35.109Z,11.10
2019-03-04T14:13:01.179Z,11.00
2019-03-04T14:15:30.239Z,11.00
2019-03-04T14:17:56.538Z,11.00
2019-03-04T14:20:22.790Z,11.00
2019-03-04T14:22:57.170Z,11.00
2019-03-04T14:25:17.130Z,10.90
2019-03-04T14:27:43.278Z,10.90
2019-03-04T14:30:17.248Z,10.80
2019-03-04T14:32:43.492Z,10.80
2019-03-04T14:35:10.060Z,10.80
2019-03-04T14:37:36.200Z,10.90
2019-03-04T14:40:03.400Z,10.90
2019-03-04T14:42:29.489Z,10.90
2019-03-04T14:44:55.602Z,10.90
2019-03-04T14:47:21.809Z,10.80
2019-03-04T14:49:47.898Z,10.80
2019-03-04T14:52:14.033Z,10.90
2019-03-04T14:54:40.130Z,10.80
2019-03-04T14:57:06.273Z,10.80
2019-03-04T14:59:32.370Z,10.80
2019-03-04T15:01:58.503Z,10.90
2019-03-04T15:04:24.723Z,11.00
2019-03-04T15:06:50.949Z,11.30
2019-03-04T15:09:17.397Z,11.60
2019-03-04T15:11:43.511Z,11.40
2019-03-04T15:14:09.803Z,11.20
2019-03-04T15:16:35.914Z,11.10
2019-03-04T15:19:02.071Z,11.20
2019-03-04T15:21:28.365Z,11.30
2019-03-04T15:23:54.503Z,12.20
2019-03-04T15:26:20.723Z,13.20
2019-03-04T15:28:46.925Z,13.20
2019-03-04T15:31:13.157Z,12.90
2019-03-04T15:33:39.239Z,12.50
2019-03-04T15:36:05.344Z,13.00
2019-03-04T15:38:31.498Z,12.60
2019-03-04T15:40:57.663Z,13.40
2019-03-04T15:43:23.929Z,13.00
2019-03-04T15:45:54.706Z,12.50
2019-03-04T15:48:23.382Z,11.60
2019-03-04T15:50:49.493Z,11.20
2019-03-04T15:53:16.207Z,11.00
2019-03-04T15:55:42.289Z,11.00
2019-03-04T15:58:09.116Z,10.90
2019-03-04T16:00:35.580Z,10.80
2019-03-04T16:03:02.275Z,10.80
2019-03-04T16:05:28.493Z,10.80
2019-03-04T16:07:54.797Z,10.80
2019-03-04T16:10:28.625Z,10.70
2019-03-04T16:12:54.843Z,10.70
2019-03-04T16:15:21.445Z,10.70
2019-03-04T16:17:47.717Z,10.70
2019-03-04T16:20:20.974Z,10.70
2019-03-04T16:22:47.961Z,10.70
2019-03-04T16:25:14.458Z,10.80
2019-03-04T16:27:40.923Z,10.80
2019-03-04T16:30:20.669Z,10.80
2019-03-04T16:32:46.771Z,10.80
2019-03-04T16:35:13.202Z,10.80
2019-03-04T16:37:39.434Z,10.80
2019-03-04T16:40:16.613Z,10.80
2019-03-04T16:42:42.832Z,10.80
2019-03-04T16:45:12.711Z,10.60
2019-03-04T16:47:38.834Z,10.50
2019-03-04T16:50:10.830Z,10.00
2019-03-04T16:52:37.049Z,9.20
2019-03-04T16:55:05.747Z,8.70
2019-03-04T16:57:31.979Z,8.20
2019-03-04T16:59:58.343Z,7.80
2019-03-04T17:02:24.841Z,7.60
2019-03-04T17:04:51.151Z,7.50
2019-03-04T17:07:17.257Z,7.40
2019-03-04T17:09:43.504Z,7.40
2019-03-04T17:12:09.737Z,7.40
2019-03-04T17:14:36.064Z,7.40
2019-03-04T17:17:05.963Z,7.40
2019-03-04T17:19:32.115Z,7.10
2019-03-04T17:21:58.284Z,7.10
2019-03-04T17:24:24.356Z,7.00
2019-03-04T17:26:50.497Z,7.00
2019-03-04T17:29:16.804Z,7.10
2019-03-04T17:31:42.949Z,6.90
2019-03-04T17:34:09.286Z,6.90
2019-03-04T17:36:35.464Z,6.90
2019-03-04T17:39:01.585Z,6.90
2019-03-04T17:41:29.687Z,6.90
2019-03-04T17:43:55.766Z,6.90
2019-03-04T17:46:22.004Z,6.90
2019-03-04T17:48:48.203Z,6.90
2019-03-04T17:51:14.284Z,6.80
2019-03-04T17:53:40.412Z,6.90
2019-03-04T17:56:06.639Z,6.90
2019-03-04T17:58:32.874Z,6.80
2019-03-04T18:00:59.140Z,6.90
2019-03-04T18:03:25.334Z,6.80
2019-03-04T18:05:52.727Z,6.80
2019-03-04T18:08:18.977Z,6.80
2019-03-04T18:11:05.026Z,6.90
2019-03-04T18:13:31.644Z,7.00
2019-03-04T18:15:57.723Z,7.10
2019-03-04T18:18:23.854Z,7.10
2019-03-04T18:20:50.131Z,7.10
2019-03-04T18:23:16.342Z,7.10
2019-03-04T18:26:01.261Z,7.00
2019-03-04T18:28:57.621Z,7.00
2019-03-04T18:31:39.233Z,7.10
2019-03-04T18:34:18.763Z,7.10
2019-03-04T18:36:57.833Z,7.10
2019-03-04T18:39:45.798Z,7.00
2019-03-04T18:42:37.143Z,6.90
2019-03-04T18:45:09.879Z,6.90
2019-03-04T18:48:04.511Z,6.80
2019-03-04T18:50:30.838Z,6.90
2019-03-04T18:52:57.200Z,6.80
2019-03-04T18:55:23.431Z,6.80
2019-03-04T18:57:49.667Z,6.70
2019-03-04T19:00:19.460Z,6.80
2019-03-04T19:02:46.102Z,6.70
2019-03-04T19:05:12.279Z,6.70
2019-03-04T19:07:38.557Z,6.60
2019-03-04T19:10:10.022Z,6.60
2019-03-04T19:12:36.337Z,6.50
2019-03-04T19:15:05.274Z,6.40
2019-03-04T19:17:33.805Z,6.30
2019-03-04T19:19:59.512Z,6.40
2019-03-04T19:22:25.721Z,6.50
2019-03-04T19:24:51.939Z,6.40
2019-03-04T19:27:18.188Z,6.40
2019-03-04T19:29:44.375Z,6.40
2019-03-04T19:32:10.461Z,6.30
2019-03-04T19:34:36.700Z,6.30
2019-03-04T19:37:02.984Z,6.30
2019-03-04T19:39:29.431Z,6.30
2019-03-04T19:41:55.548Z,6.20
2019-03-04T19:44:21.837Z,6.20
2019-03-04T19:46:48.038Z,6.20
2019-03-04T19:49:14.298Z,6.20
2019-03-04T19:51:40.534Z,6.20
2019-03-04T19:54:06.995Z,6.20
2019-03-04T19:56:33.160Z,6.20
2019-03-04T19:58:59.348Z,6.20
2019-03-04T20:01:25.699Z,6.20
2019-03-04T20:03:52.154Z,6.10
2019-03-04T20:06:18.371Z,6.10
2019-03-04T20:08:44.707Z,6.10
2019-03-04T20:11:11.095Z,6.10
2019-03-04T20:13:37.301Z,6.00
2019-03-04T20:16:04.005Z,6.10
2019-03-04T20:18:30.270Z,6.10
2019-03-04T20:20:56.673Z,6.10
2019-03-04T20:23:22.799Z,6.10
2019-03-04T20:25:49.960Z,6.00
2019-03-04T20:28:16.344Z,6.10
2019-03-04T20:30:42.577Z,6.00
2019-03-04T20:33:08.797Z,6.00
2019-03-04T20:35:35.114Z,6.00
2019-03-04T20:38:26.524Z,6.00
2019-03-04T20:40:52.754Z,6.00
2019-03-04T20:43:18.917Z,5.90
2019-03-04T20:45:45.329Z,5.90
2019-03-04T20:48:11.706Z,5.80
2019-03-04T20:50:37.801Z,5.80
2019-03-04T20:53:04.345Z,5.80
2019-03-04T20:55:30.526Z,5.80
2019-03-04T20:57:56.650Z,5.70
2019-03-04T21:00:32.332Z,5.60
2019-03-04T21:02:58.951Z,5.80
2019-03-04T21:05:25.991Z,5.80
2019-03-04T21:07:52.580Z,5.70
2019-03-04T21:10:18.908Z,5.70
2019-03-04T21:12:46.696Z,5.70
2019-03-04T21:15:15.590Z,5.60
2019-03-04T21:17:41.873Z,5.60
2019-03-04T21:20:15.752Z,5.50
2019-03-04T21:22:41.939Z,5.50
2019-03-04T21:25:17.681Z,5.60
2019-03-04T21:27:44.009Z,5.50
2019-03-04T21:30:32.258Z,5.50
2019-03-04T21:32:58.546Z,5.60
2019-03-04T21:35:47.296Z,5.60
2019-03-04T21:38:13.805Z,5.50
2019-03-04T21:40:46.860Z,5.50
2019-03-04T21:43:19.798Z,5.50
2019-03-04T21:45:52.392Z,5.50
2019-03-04T21:48:25.308Z,5.50
2019-03-04T21:51:13.189Z,5.40
2019-03-04T21:53:43.212Z,5.30
2019-03-04T21:56:13.404Z,5.30
2019-03-04T21:58:39.661Z,5.30
2019-03-04T22:01:18.654Z,5.30
2019-03-04T22:03:45.174Z,5.30
2019-03-04T22:06:11.559Z,5.30
2019-03-04T22:08:37.917Z,5.30
2019-03-04T22:11:04.343Z,5.30
2019-03-04T22:13:30.639Z,5.30
2019-03-04T22:15:56.869Z,5.30
2019-03-04T22:18:23.068Z,5.40
2019-03-04T22:20:49.334Z,5.40
2019-03-04T22:23:15.798Z,5.40
2019-03-04T22:25:42.000Z,5.40
2019-03-04T22:28:08.103Z,5.40
2019-03-04T22:30:34.347Z,5.40
2019-03-04T22:33:00.782Z,5.50
2019-03-04T22:35:27.083Z,5.40
2019-03-04T22:37:53.801Z,5.50
2019-03-04T22:40:22.653Z,5.50
2019-03-04T22:42:48.836Z,5.40
2019-03-04T22:45:17.010Z,5.40
2019-03-04T22:47:43.815Z,5.40
2019-03-04T22:50:12.551Z,5.30
2019-03-04T22:52:38.725Z,5.30
2019-03-04T22:55:14.789Z,5.20
2019-03-04T22:57:40.998Z,5.20
2019-03-04T23:00:29.597Z,5.20
2019-03-04T23:02:55.832Z,5.20
2019-03-04T23:05:23.093Z,5.20
2019-03-04T23:07:49.279Z,5.10
2019-03-04T23:10:15.727Z,5.20
2019-03-04T23:12:45.725Z,5.20
2019-03-04T23:15:17.875Z,5.30
2019-03-04T23:17:44.221Z,5.20
2019-03-04T23:20:10.387Z,5.20
2019-03-04T23:22:36.561Z,5.20
2019-03-04T23:25:06.425Z,5.20
2019-03-04T23:27:32.633Z,5.20
2019-03-04T23:29:58.709Z,5.20
2019-03-04T23:32:24.870Z,5.20
2019-03-04T23:34:51.075Z,5.20
2019-03-04T23:37:17.185Z,5.20
2019-03-04T23:39:43.315Z,5.20
2019-03-04T23:42:09.539Z,5.30
2019-03-04T23:44:35.619Z,5.30
2019-03-04T23:47:01.728Z,5.40
2019-03-04T23:49:27.986Z,5.40
2019-03-04T23:51:54.101Z,5.40
2019-03-04T23:54:20.223Z,5.40
2019-03-04T23:56:46.358Z,5.40
2019-03-04T23:59:12.547Z,5.40
